createdAt,value
2019-04-07T00:02:17.921Z,54.70
2019-04-07T00:04:46.688Z,55.00
2019-04-07T00:07:15.915Z,55.20
2019-04-07T00:09:44.761Z,55.40
2019-04-07T00:12:13.785Z,55.70
2019-04-07T00:14:42.518Z,55.60
2019-04-07T00:17:12.134Z,55.50
2019-04-07T00:19:40.966Z,56.30
2019-04-07T00:22:09.557Z,55.90
2019-04-07T00:24:39.218Z,56.00
2019-04-07T00:27:07.929Z,56.00
2019-04-07T00:29:36.653Z,56.20
2019-04-07T00:32:05.935Z,56.40
2019-04-07T00:34:34.765Z,56.50
2019-04-07T00:37:03.314Z,56.70
2019-04-07T00:39:32.313Z,56.90
2019-04-07T00:42:00.992Z,57.20
2019-04-07T00:44:30.011Z,57.30
2019-04-07T00:46:58.741Z,57.40
2019-04-07T00:49:28.054Z,57.70
2019-04-07T00:51:57.607Z,57.80
2019-04-07T00:54:26.165Z,57.90
2019-04-07T00:56:54.741Z,58.10
2019-04-07T00:59:23.424Z,58.30
2019-04-07T01:01:52.592Z,58.70
2019-04-07T01:04:21.283Z,58.40
2019-04-07T01:06:50.059Z,58.90
2019-04-07T01:09:18.844Z,58.70
2019-04-07T01:11:47.487Z,59.00
2019-04-07T01:14:16.068Z,58.50
2019-04-07T01:16:45.536Z,58.30
2019-04-07T01:19:14.667Z,58.30
2019-04-07T01:21:43.579Z,58.40
2019-04-07T01:24:12.306Z,58.50
2019-04-07T01:26:42.034Z,58.40
2019-04-07T01:29:10.802Z,58.40
2019-04-07T01:31:39.551Z,58.30
2019-04-07T01:34:08.104Z,58.70
2019-04-07T01:36:36.984Z,58.60
2019-04-07T01:39:09.161Z,58.50
2019-04-07T01:41:48.419Z,58.70
2019-04-07T01:44:21.709Z,58.90
2019-04-07T01:46:54.842Z,59.00
2019-04-07T01:49:33.911Z,59.30
2019-04-07T01:52:16.174Z,59.60
2019-04-07T01:54:46.385Z,59.50
2019-04-07T01:57:33.790Z,59.60
2019-04-07T02:00:04.668Z,59.80
2019-04-07T02:02:46.934Z,59.70
2019-04-07T02:05:34.261Z,59.80
2019-04-07T02:08:20.943Z,59.90
2019-04-07T02:10:51.624Z,60.20
2019-04-07T02:13:31.199Z,60.50
2019-04-07T02:16:08.102Z,60.90
2019-04-07T02:18:44.290Z,61.10
2019-04-07T02:21:18.365Z,61.30
2019-04-07T02:23:57.957Z,61.40
2019-04-07T02:26:28.854Z,61.60
2019-04-07T02:29:14.470Z,61.60
2019-04-07T02:32:01.441Z,62.00
2019-04-07T02:34:38.079Z,62.50
2019-04-07T02:37:11.927Z,62.70
2019-04-07T02:39:48.658Z,63.10
2019-04-07T02:42:19.113Z,63.50
2019-04-07T02:44:55.277Z,63.50
2019-04-07T02:47:41.679Z,63.90
2019-04-07T02:50:17.835Z,63.90
2019-04-07T02:52:57.317Z,64.30
2019-04-07T02:55:28.110Z,64.30
2019-04-07T02:57:58.571Z,64.70
2019-04-07T03:00:41.452Z,64.70
2019-04-07T03:03:14.555Z,65.20
2019-04-07T03:05:51.149Z,65.40
2019-04-07T03:08:30.657Z,65.70
2019-04-07T03:11:18.110Z,66.50
2019-04-07T03:13:58.527Z,66.30
2019-04-07T03:16:44.794Z,66.40
2019-04-07T03:19:15.491Z,66.40
2019-04-07T03:22:02.854Z,66.30
2019-04-07T03:24:36.828Z,66.00
2019-04-07T03:27:16.273Z,65.70
2019-04-07T03:29:53.365Z,66.30
2019-04-07T03:32:42.834Z,66.60
2019-04-07T03:35:16.066Z,67.10
2019-04-07T03:38:03.002Z,66.50
2019-04-07T03:40:33.549Z,66.50
2019-04-07T03:43:22.050Z,66.30
2019-04-07T03:45:52.305Z,66.70
2019-04-07T03:48:25.046Z,67.00
2019-04-07T03:51:07.234Z,67.00
2019-04-07T03:53:43.551Z,66.70
2019-04-07T03:56:14.498Z,66.90
2019-04-07T03:59:01.049Z,66.50
2019-04-07T04:01:47.918Z,66.00
2019-04-07T04:04:34.643Z,66.30
2019-04-07T04:07:22.687Z,66.30
2019-04-07T04:09:45.654Z,65.90
2019-04-07T04:12:18.641Z,66.30
2019-04-07T04:14:58.848Z,66.10
2019-04-07T04:17:28.307Z,66.10
2019-04-07T04:19:57.384Z,66.00
2019-04-07T04:22:26.062Z,66.20
2019-04-07T04:24:55.564Z,65.80
2019-04-07T04:27:24.289Z,65.50
2019-04-07T04:29:53.377Z,65.60
2019-04-07T04:32:23.136Z,66.00
2019-04-07T04:34:51.997Z,65.90
2019-04-07T04:37:34.771Z,66.10
2019-04-07T04:39:51.222Z,66.20
2019-04-07T04:42:20.404Z,66.10
2019-04-07T04:44:49.179Z,66.20
2019-04-07T04:47:18.850Z,66.20
2019-04-07T04:49:48.346Z,66.40
2019-04-07T04:52:17.887Z,66.50
2019-04-07T04:54:47.475Z,66.70
2019-04-07T04:57:16.352Z,66.90
2019-04-07T04:59:45.083Z,66.90
2019-04-07T05:02:13.742Z,67.00
2019-04-07T05:04:42.394Z,67.00
2019-04-07T05:07:11.274Z,66.90
2019-04-07T05:09:46.500Z,66.80
2019-04-07T05:12:10.356Z,67.10
2019-04-07T05:14:39.061Z,67.30
2019-04-07T05:17:07.610Z,67.50
2019-04-07T05:19:37.203Z,67.30
2019-04-07T05:22:06.104Z,67.40
2019-04-07T05:24:35.190Z,67.50
2019-04-07T05:27:03.933Z,67.30
2019-04-07T05:29:33.948Z,66.90
2019-04-07T05:32:02.629Z,66.50
2019-04-07T05:34:31.283Z,66.60
2019-04-07T05:36:59.986Z,66.60
2019-04-07T05:39:28.586Z,66.10
2019-04-07T05:41:57.375Z,65.90
2019-04-07T05:44:26.676Z,65.80
2019-04-07T05:46:56.043Z,65.80
2019-04-07T05:49:24.902Z,65.70
2019-04-07T05:51:53.589Z,65.30
2019-04-07T05:54:22.517Z,64.90
2019-04-07T05:56:51.467Z,65.20
2019-04-07T05:59:20.105Z,66.10
2019-04-07T06:01:51.648Z,64.80
2019-04-07T06:04:19.316Z,65.10
2019-04-07T06:06:51.246Z,64.70
2019-04-07T06:09:20.583Z,65.10
2019-04-07T06:11:49.743Z,65.90
2019-04-07T06:14:19.101Z,65.20
2019-04-07T06:16:51.888Z,64.10
2019-04-07T06:19:18.288Z,63.40
2019-04-07T06:21:48.833Z,63.60
2019-04-07T06:24:18.378Z,63.70
2019-04-07T06:26:49.851Z,63.40
2019-04-07T06:29:18.296Z,63.10
2019-04-07T06:31:47.155Z,62.60
2019-04-07T06:34:16.182Z,60.60
2019-04-07T06:36:45.080Z,59.30
2019-04-07T06:39:17.225Z,58.70
2019-04-07T06:41:44.369Z,58.00
2019-04-07T06:44:15.834Z,58.70
2019-04-07T06:47:03.884Z,59.30
2019-04-07T06:49:33.777Z,58.80
2019-04-07T06:52:04.815Z,59.10
2019-04-07T06:54:38.741Z,59.60
2019-04-07T06:57:24.457Z,59.80
2019-04-07T07:00:00.919Z,60.10
2019-04-07T07:02:47.806Z,59.70
2019-04-07T07:05:34.946Z,59.50
2019-04-07T07:08:19.375Z,59.60
2019-04-07T07:10:54.318Z,60.70
2019-04-07T07:13:30.295Z,60.80
2019-04-07T07:15:59.186Z,58.80
2019-04-07T07:18:38.106Z,57.20
2019-04-07T07:21:11.248Z,55.10
2019-04-07T07:23:44.858Z,53.40
2019-04-07T07:26:11.877Z,56.20
2019-04-07T07:28:42.892Z,56.90
2019-04-07T07:31:10.883Z,52.80
2019-04-07T07:33:41.790Z,51.10
2019-04-07T07:36:10.015Z,50.80
2019-04-07T07:38:38.694Z,49.50
2019-04-07T07:41:07.439Z,49.20
2019-04-07T07:43:36.033Z,47.30
2019-04-07T07:46:05.528Z,46.60
2019-04-07T07:48:34.278Z,46.80
2019-04-07T07:51:03.949Z,45.70
2019-04-07T07:53:32.952Z,44.80
2019-04-07T07:56:02.121Z,41.40
2019-04-07T07:58:33.308Z,39.60
2019-04-07T08:01:01.496Z,44.40
2019-04-07T08:03:30.350Z,48.20
2019-04-07T08:05:59.075Z,50.50
2019-04-07T08:08:27.914Z,49.60
2019-04-07T08:11:00.388Z,48.10
2019-04-07T08:13:26.900Z,46.60
2019-04-07T08:15:57.173Z,44.60
2019-04-07T08:18:26.207Z,43.90
2019-04-07T08:20:54.870Z,47.00
2019-04-07T08:23:23.736Z,47.90
2019-04-07T08:25:54.475Z,48.90
2019-04-07T08:28:22.596Z,51.80
2019-04-07T08:30:51.378Z,52.10
2019-04-07T08:33:20.250Z,50.80
2019-04-07T08:35:49.079Z,50.40
2019-04-07T08:38:20.023Z,49.50
2019-04-07T08:40:49.656Z,49.60
2019-04-07T08:43:21.199Z,49.50
2019-04-07T08:45:48.813Z,50.70
2019-04-07T08:48:19.389Z,50.50
2019-04-07T08:50:48.546Z,50.00
2019-04-07T08:53:17.266Z,50.10
2019-04-07T08:55:48.408Z,51.40
2019-04-07T08:58:24.942Z,53.50
2019-04-07T09:00:50.999Z,53.50
2019-04-07T09:03:18.530Z,53.80
2019-04-07T09:05:48.230Z,52.50
2019-04-07T09:08:17.806Z,51.50
2019-04-07T09:11:06.111Z,47.70
2019-04-07T09:13:34.783Z,45.50
2019-04-07T09:16:23.611Z,43.90
2019-04-07T09:19:08.311Z,41.80
2019-04-07T09:21:51.800Z,41.20
2019-04-07T09:24:39.162Z,41.60
2019-04-07T09:27:13.955Z,40.00
2019-04-07T09:29:59.985Z,37.90
2019-04-07T09:32:47.253Z,38.70
2019-04-07T09:35:33.888Z,39.70
2019-04-07T09:38:04.429Z,39.50
2019-04-07T09:40:46.240Z,31.40
2019-04-07T09:43:24.856Z,30.00
2019-04-07T09:45:55.201Z,30.00
2019-04-07T09:48:32.067Z,31.50
2019-04-07T09:51:18.590Z,31.50
2019-04-07T09:54:05.382Z,31.90
2019-04-07T09:56:45.125Z,34.20
2019-04-07T09:59:28.454Z,33.70
2019-04-07T10:02:13.255Z,37.20
2019-04-07T10:04:49.916Z,39.30
2019-04-07T10:07:40.293Z,43.60
2019-04-07T10:10:15.927Z,46.50
2019-04-07T10:13:01.003Z,47.60
2019-04-07T10:15:31.683Z,47.70
2019-04-07T10:18:02.174Z,48.50
2019-04-07T10:20:33.607Z,49.10
2019-04-07T10:23:16.278Z,49.20
2019-04-07T10:26:01.691Z,48.60
2019-04-07T10:28:32.330Z,48.70
2019-04-07T10:31:09.248Z,49.00
2019-04-07T10:33:49.338Z,48.80
2019-04-07T10:36:31.906Z,49.00
2019-04-07T10:39:05.059Z,48.60
2019-04-07T10:41:51.526Z,47.90
2019-04-07T10:44:27.697Z,46.20
2019-04-07T10:47:14.501Z,44.60
2019-04-07T10:50:06.889Z,41.40
2019-04-07T10:52:41.718Z,40.30
2019-04-07T10:55:11.999Z,41.70
2019-04-07T10:57:45.079Z,42.50
2019-04-07T11:00:15.802Z,39.60
2019-04-07T11:02:52.936Z,38.40
2019-04-07T11:05:37.331Z,37.90
2019-04-07T11:08:07.809Z,38.00
2019-04-07T11:10:40.902Z,39.80
2019-04-07T11:13:23.202Z,39.20
2019-04-07T11:16:09.268Z,38.40
2019-04-07T11:18:40.256Z,36.20
2019-04-07T11:21:13.542Z,36.60
2019-04-07T11:24:01.215Z,36.30
2019-04-07T11:26:35.276Z,36.10
2019-04-07T11:29:11.623Z,35.20
2019-04-07T11:31:45.015Z,35.70
2019-04-07T11:34:24.564Z,35.90
2019-04-07T11:36:58.025Z,33.20
2019-04-07T11:39:35.087Z,34.60
2019-04-07T11:42:17.338Z,34.60
2019-04-07T11:44:54.138Z,33.40
2019-04-07T11:47:26.837Z,33.80
2019-04-07T11:50:06.047Z,34.80
2019-04-07T11:52:36.539Z,32.70
2019-04-07T11:55:29.167Z,33.70
2019-04-07T11:58:14.868Z,35.20
2019-04-07T12:00:57.108Z,35.50
2019-04-07T12:03:43.833Z,35.50
2019-04-07T12:06:30.625Z,36.20
2019-04-07T12:09:06.929Z,37.50
2019-04-07T12:11:37.294Z,39.30
2019-04-07T12:14:24.435Z,41.00
2019-04-07T12:17:05.019Z,40.80
2019-04-07T12:19:35.523Z,40.10
2019-04-07T12:22:21.692Z,39.30
2019-04-07T12:25:10.558Z,38.90
2019-04-07T12:27:43.891Z,39.20
2019-04-07T12:30:28.435Z,40.20
2019-04-07T12:33:07.404Z,41.00
2019-04-07T12:35:36.745Z,41.50
2019-04-07T12:38:12.238Z,41.60
2019-04-07T12:40:45.259Z,41.10
2019-04-07T12:43:31.566Z,40.40
2019-04-07T12:46:19.306Z,39.60
2019-04-07T12:48:50.039Z,38.70
2019-04-07T12:51:23.505Z,39.50
2019-04-07T12:53:57.453Z,40.30
2019-04-07T12:56:44.529Z,40.40
2019-04-07T12:59:18.278Z,40.30
2019-04-07T13:02:05.595Z,40.80
2019-04-07T13:04:36.468Z,41.40
2019-04-07T13:07:06.832Z,41.20
2019-04-07T13:09:37.116Z,41.70
2019-04-07T13:12:14.040Z,41.70
2019-04-07T13:14:44.315Z,41.30
2019-04-07T13:17:34.417Z,41.80
2019-04-07T13:20:18.125Z,41.40
2019-04-07T13:22:55.456Z,41.60
2019-04-07T13:25:34.712Z,42.30
2019-04-07T13:28:08.289Z,42.40
2019-04-07T13:30:40.990Z,42.70
2019-04-07T13:33:20.260Z,42.30
2019-04-07T13:35:49.121Z,42.60
2019-04-07T13:38:28.249Z,43.40
2019-04-07T13:41:18.481Z,43.30
2019-04-07T13:44:07.169Z,43.60
2019-04-07T13:46:37.688Z,44.10
2019-04-07T13:49:14.820Z,44.10
2019-04-07T13:54:41.477Z,43.70
2019-04-07T13:57:15.540Z,43.90
2019-04-07T13:59:52.094Z,43.70
2019-04-07T14:02:29.939Z,43.30
2019-04-07T14:05:13.330Z,42.90
2019-04-07T14:07:49.161Z,42.20
2019-04-07T14:10:37.170Z,41.80
2019-04-07T14:13:07.459Z,41.40
2019-04-07T14:15:44.276Z,39.40
2019-04-07T14:18:15.326Z,38.90
2019-04-07T14:20:48.619Z,38.40
2019-04-07T14:23:34.274Z,38.80
2019-04-07T14:26:16.850Z,38.40
2019-04-07T14:28:47.613Z,38.40
2019-04-07T14:31:27.243Z,38.50
2019-04-07T14:34:03.617Z,39.50
2019-04-07T14:36:50.039Z,39.60
2019-04-07T14:39:36.920Z,39.40
2019-04-07T14:42:08.759Z,39.40
2019-04-07T14:44:57.839Z,40.00
2019-04-07T14:47:34.064Z,39.80
2019-04-07T14:50:11.889Z,40.00
2019-04-07T14:52:51.390Z,39.70
2019-04-07T14:55:30.298Z,39.70
2019-04-07T14:58:18.712Z,40.10
2019-04-07T15:01:05.919Z,40.10
2019-04-07T15:03:33.283Z,40.60
2019-04-07T15:06:01.950Z,41.00
2019-04-07T15:08:35.561Z,41.50
2019-04-07T15:11:23.884Z,40.90
2019-04-07T15:13:56.926Z,40.80
2019-04-07T15:16:24.627Z,41.20
2019-04-07T15:18:53.429Z,41.50
2019-04-07T15:21:22.201Z,41.80
2019-04-07T15:23:50.798Z,41.90
2019-04-07T15:26:20.364Z,41.20
2019-04-07T15:28:49.225Z,41.00
2019-04-07T15:31:19.468Z,41.10
2019-04-07T15:33:48.327Z,41.40
2019-04-07T15:36:18.729Z,41.80
2019-04-07T15:38:47.551Z,41.50
2019-04-07T15:41:18.222Z,41.50
2019-04-07T15:43:46.689Z,41.40
2019-04-07T15:46:18.092Z,41.70
2019-04-07T15:48:46.576Z,41.90
2019-04-07T15:51:15.363Z,42.20
2019-04-07T15:53:49.773Z,42.40
2019-04-07T15:56:17.273Z,42.10
2019-04-07T15:58:45.238Z,42.10
2019-04-07T16:01:15.005Z,42.40
2019-04-07T16:03:47.709Z,42.80
2019-04-07T16:06:16.218Z,43.00
2019-04-07T16:08:44.689Z,42.30
2019-04-07T16:11:13.457Z,43.10
2019-04-07T16:13:42.415Z,43.40
2019-04-07T16:16:14.598Z,43.80
2019-04-07T16:18:44.267Z,43.90
2019-04-07T16:21:14.286Z,44.10
2019-04-07T16:23:43.243Z,43.90
2019-04-07T16:26:11.906Z,44.20
2019-04-07T16:28:41.378Z,44.60
2019-04-07T16:31:11.009Z,44.70
2019-04-07T16:33:39.805Z,44.80
2019-04-07T16:36:08.669Z,44.90
2019-04-07T16:38:37.315Z,44.80
2019-04-07T16:41:06.586Z,45.40
2019-04-07T16:43:37.658Z,45.70
2019-04-07T16:46:06.487Z,45.80
2019-04-07T16:48:38.672Z,45.90
2019-04-07T16:51:06.034Z,45.80
2019-04-07T16:53:37.925Z,46.00
2019-04-07T16:56:05.341Z,46.20
2019-04-07T16:58:37.279Z,46.10
2019-04-07T17:01:04.691Z,46.50
2019-04-07T17:03:33.312Z,46.90
2019-04-07T17:06:02.969Z,47.00
2019-04-07T17:08:31.880Z,47.30
2019-04-07T17:11:05.212Z,47.50
2019-04-07T17:13:39.440Z,47.70
2019-04-07T17:16:01.444Z,48.50
2019-04-07T17:18:38.890Z,48.40
2019-04-07T17:21:14.423Z,48.20
2019-04-07T17:23:43.922Z,48.50
2019-04-07T17:26:13.623Z,48.80
2019-04-07T17:28:46.093Z,49.10
2019-04-07T17:31:14.148Z,49.40
2019-04-07T17:33:43.153Z,49.60
2019-04-07T17:36:15.386Z,49.80
2019-04-07T17:38:44.303Z,49.70
2019-04-07T17:41:15.544Z,49.80
2019-04-07T17:43:53.264Z,50.40
2019-04-07T17:46:20.368Z,51.10
2019-04-07T17:48:56.761Z,51.90
2019-04-07T17:51:36.329Z,52.20
2019-04-07T17:54:04.688Z,52.60
2019-04-07T17:56:35.762Z,52.20
2019-04-07T17:59:08.692Z,52.10
2019-04-07T18:01:55.433Z,51.90
2019-04-07T18:04:43.834Z,52.10
2019-04-07T18:07:30.083Z,52.00
2019-04-07T18:10:16.627Z,52.10
2019-04-07T18:12:49.804Z,52.50
2019-04-07T18:15:28.137Z,52.90
2019-04-07T18:18:10.461Z,54.00
2019-04-07T18:20:41.507Z,54.90
2019-04-07T18:23:18.534Z,55.80
2019-04-07T18:25:54.602Z,56.40
2019-04-07T18:28:34.036Z,57.00
2019-04-07T18:31:22.654Z,57.40
2019-04-07T18:34:09.976Z,57.70
2019-04-07T18:36:57.771Z,58.20
2019-04-07T18:39:35.171Z,58.40
2019-04-07T18:42:14.178Z,58.70
2019-04-07T18:45:01.787Z,57.70
2019-04-07T18:47:47.202Z,57.90
2019-04-07T18:50:28.624Z,59.00
2019-04-07T18:53:11.061Z,58.50
2019-04-07T18:55:59.873Z,59.20
2019-04-07T18:58:35.999Z,59.70
2019-04-07T19:01:12.381Z,60.10
2019-04-07T19:03:58.874Z,60.20
2019-04-07T19:06:46.431Z,60.60
2019-04-07T19:09:18.916Z,61.00
2019-04-07T19:12:05.889Z,61.80
2019-04-07T19:14:44.553Z,61.60
2019-04-07T19:17:10.837Z,62.10
2019-04-07T19:19:50.571Z,62.90
2019-04-07T19:22:26.763Z,63.10
2019-04-07T19:24:57.892Z,63.20
2019-04-07T19:27:40.611Z,63.50
2019-04-07T19:30:29.456Z,63.70
2019-04-07T19:33:12.173Z,64.10
2019-04-07T19:35:43.423Z,64.70
2019-04-07T19:38:30.635Z,64.70
2019-04-07T19:41:13.368Z,65.60
2019-04-07T19:43:56.494Z,65.20
2019-04-07T19:46:28.163Z,65.00
2019-04-07T19:49:18.961Z,64.30
2019-04-07T19:52:05.440Z,63.60
2019-04-07T19:54:33.402Z,62.60
2019-04-07T19:57:13.347Z,62.50
2019-04-07T19:59:46.515Z,62.30
2019-04-07T20:02:17.478Z,62.60
2019-04-07T20:04:53.736Z,62.80
2019-04-07T20:07:41.871Z,62.30
2019-04-07T20:10:19.934Z,62.30
2019-04-07T20:12:50.789Z,62.70
2019-04-07T20:15:22.104Z,62.40
2019-04-07T20:17:54.870Z,62.30
2019-04-07T20:20:30.247Z,62.60
2019-04-07T20:23:04.291Z,62.40
2019-04-07T20:25:46.165Z,62.40
2019-04-07T20:28:15.775Z,62.60
2019-04-07T20:30:48.414Z,62.50
2019-04-07T20:33:21.017Z,63.50
2019-04-07T20:36:03.325Z,64.00
2019-04-07T20:38:40.149Z,64.30
2019-04-07T20:41:25.682Z,65.00
2019-04-07T20:43:56.922Z,66.10
2019-04-07T20:46:44.816Z,66.80
2019-04-07T20:49:22.178Z,67.80
2019-04-07T20:52:08.955Z,68.40
2019-04-07T20:54:56.299Z,68.00
2019-04-07T20:57:42.863Z,68.00
2019-04-07T21:00:25.524Z,67.30
2019-04-07T21:03:11.222Z,67.60
2019-04-07T21:05:29.246Z,68.30
2019-04-07T21:08:02.603Z,67.30
2019-04-07T21:10:32.910Z,65.90
2019-04-07T21:13:03.453Z,64.50
2019-04-07T21:15:33.814Z,62.60
2019-04-07T21:18:04.199Z,61.80
2019-04-07T21:20:52.668Z,61.00
2019-04-07T21:23:23.299Z,61.50
2019-04-07T21:25:57.893Z,59.40
2019-04-07T21:28:38.013Z,59.30
2019-04-07T21:31:08.756Z,57.50
2019-04-07T21:33:38.976Z,58.40
2019-04-07T21:36:21.734Z,59.90
2019-04-07T21:38:54.235Z,63.20
2019-04-07T21:41:24.348Z,66.70
2019-04-07T21:44:09.702Z,68.00
2019-04-07T21:46:49.386Z,70.20
2019-04-07T21:49:22.839Z,72.40
2019-04-07T21:52:02.628Z,72.50
2019-04-07T21:54:38.337Z,73.30
2019-04-07T21:57:08.259Z,74.60
2019-04-07T21:59:59.027Z,75.60
2019-04-07T22:02:29.268Z,75.70
2019-04-07T22:04:59.607Z,77.30
2019-04-07T22:07:39.660Z,77.30
2019-04-07T22:10:10.086Z,77.60
2019-04-07T22:12:38.775Z,78.50
2019-04-07T22:15:13.483Z,78.70
2019-04-07T22:17:40.638Z,79.50
2019-04-07T22:20:10.594Z,80.30
2019-04-07T22:22:39.395Z,80.80
2019-04-07T22:25:09.814Z,81.10
2019-04-07T22:27:38.969Z,82.00
2019-04-07T22:30:11.516Z,82.40
2019-04-07T22:32:40.706Z,82.50
2019-04-07T22:35:10.626Z,83.10
2019-04-07T22:37:39.940Z,84.00
2019-04-07T22:40:14.761Z,85.30
2019-04-07T22:42:45.431Z,85.70
2019-04-07T22:45:14.818Z,86.50
2019-04-07T22:47:44.467Z,86.60
2019-04-07T22:50:13.850Z,87.00
2019-04-07T22:52:47.358Z,87.20
2019-04-07T22:55:13.227Z,87.50
2019-04-07T22:57:41.828Z,87.70
2019-04-07T23:00:12.985Z,88.10
2019-04-07T23:02:42.364Z,89.20
2019-04-07T23:05:11.486Z,89.40
2019-04-07T23:07:40.180Z,90.30
2019-04-07T23:10:09.144Z,90.10
2019-04-07T23:12:38.176Z,90.80
2019-04-07T23:15:07.770Z,91.00
2019-04-07T23:17:36.445Z,91.60
2019-04-07T23:20:08.306Z,91.70
2019-04-07T23:22:36.997Z,92.20
2019-04-07T23:25:07.903Z,91.90
2019-04-07T23:27:36.778Z,92.10
2019-04-07T23:30:09.277Z,92.00
2019-04-07T23:32:38.427Z,92.40
2019-04-07T23:35:08.276Z,92.40
2019-04-07T23:37:37.221Z,92.50
2019-04-07T23:40:06.950Z,92.60
2019-04-07T23:42:36.201Z,92.60
2019-04-07T23:45:06.856Z,92.70
2019-04-07T23:47:36.396Z,93.00
2019-04-07T23:50:07.120Z,93.00
2019-04-07T23:52:35.762Z,92.90
2019-04-07T23:55:04.566Z,92.90
2019-04-07T23:57:33.243Z,93.10
